Reklama

Seznam meteostanic a jejich METAR

Vyhledat místa podle abecedy:
A B C D E F G H I J K L M N O P Q R S T U V W X Y Z

Filtrovat:

ID stanice:
a/nebo
Název místa (fulltext):
 
Místo (ID)Naposledy načteno 
Faro (LPFR) 19.11.2018 01:00 UTC Zobrazit METAR
LPFR 190100Z 29009KT 9999 FEW015 13/12 Q1001
Florence (LIRQ) 19.11.2018 00:50 UTC Zobrazit METAR
LIRQ 190050Z 21003KT 170V240 CAVOK 05/00 Q1011
Foggia, Gino Lisa (LIBF) 18.11.2018 14:50 UTC Zobrazit METAR
LIBF 181450Z 31015KT 9999 SCT040 10/07 Q1013
Fort de France (TFFF) 19.11.2018 01:00 UTC Zobrazit METAR
TFFF 190100Z AUTO 09003KT 9999 FEW023 26/22 Q1015 TEMPO 4000 SHRA BKN018TCU
Frankfurt/ Main (EDDF) 19.11.2018 00:50 UTC Zobrazit METAR
EDDF 190050Z 02009KT 9999 FEW034 01/M03 Q1021 NOSIG
Freetown (GFLL) 14.11.2018 07:00 UTC Zobrazit METAR
GFLL 140700Z VRB02KT 9999 BKN010 24/23 Q1009
Funafuti (NGFU) 18.11.2018 16:00 UTC Zobrazit METAR
NGFU 181600Z 00000KT 9999 FEW020 28/25 Q1007
Reklama

Počasí na Váš email

Emaily jsou bez reklamy a bez spamu



Odhlásit newsletter

Reklama


Lunární kalendář

  • 23.11.
  • 30.11.
  • 07.12.
  • 15.12.



Reklama


Reklama
Povinné ručení
Reklama



Reklama